Latest Weather Observations for Swan Hill

IDV60801

Issued at 4:12 pm EST Sunday 11 April 2021 (issued every 10 minutes, with the page automatically refreshed every 10 minutes)

About weather observations | Map of weather stations | Latest weather observations for VIC | Other Formats
Station Details ID: 077094 Name: SWAN HILL AERODROME Lat: -35.38 Lon: 143.54 Height: 71.0 m
Data from the previous 72 hours. | See also: Recent months at Swan Hill
Date/Time
EST
Temp
°C
App
Temp
°C
Dew
Point
°C
Rel
Hum
%
Delta-T
°C
Wind Press
QNH
hPa
Press
MSL
hPa
Rain since
9am
mm
Dir  Spd
km/h
Gust
km/h
Spd
kts
Gust
kts
11/04:00pm 17.2 9.9 -0.1 31 7.4 SW 28 44 15 24 1019.1 1019.0 0.0
11/03:30pm 17.0 9.7 -0.2 31 7.4 SW 28 39 15 21 1019.0 1018.9 0.0
11/03:00pm 17.5 10.5 -0.2 30 7.6 SSW 26 37 14 20 1019.0 1018.9 0.0
11/02:30pm 17.4 9.7 0.1 31 7.5 SW 30 44 16 24 1018.8 1018.7 0.0
11/02:04pm 17.7 10.5 0.4 31 7.6 SW 28 46 15 25 1018.6 1018.5 0.0
11/02:00pm 16.8 10.3 0.0 32 7.2 SSW 24 37 13 20 1018.6 1018.5 0.0
11/01:30pm 17.2 10.0 0.4 32 7.3 SW 28 46 15 25 1018.9 1018.8 0.0
11/01:02pm 15.7 8.4 0.3 35 6.6 SSW 28 46 15 25 1019.0 1018.9 0.0
11/01:00pm 16.4 9.6 0.5 34 6.9 SSW 26 46 14 25 1019.0 1018.9 0.0
11/12:58pm 16.1 8.8 0.3 34 6.8 SW 28 46 15 25 1019.0 1018.9 0.0
11/12:30pm 15.7 8.5 0.7 36 6.5 SW 28 39 15 21 1019.4 1019.3 0.0
11/12:00pm 15.3 8.5 1.1 38 6.2 SSW 26 33 14 18 1019.5 1019.4 0.0
11/11:51am 15.1 7.9 0.9 38 6.1 SSW 28 48 15 26 1019.6 1019.5 0.0
11/11:30am 14.3 7.9 0.9 40 5.8 SSW 24 39 13 21 1019.7 1019.6 0.0
11/11:00am 14.6 7.5 1.5 41 5.7 SSW 28 43 15 23 1019.7 1019.6 0.0
11/10:30am 14.0 7.9 2.6 46 5.1 SW 24 33 13 18 1019.8 1019.7 0.0
11/10:17am 13.6 6.3 2.5 47 4.9 SW 30 48 16 26 1019.7 1019.6 0.0
11/10:00am 13.3 6.4 2.8 49 4.6 SW 28 41 15 22 1019.7 1019.6 0.0
11/09:30am 12.6 5.8 3.0 52 4.2 SW 28 41 15 22 1019.6 1019.5 0.0
11/09:00am 11.1 4.4 3.6 60 3.3 SW 28 41 15 22 1019.5 1019.4 0.0
11/08:30am 10.4 3.8 4.1 65 2.8 SW 28 39 15 21 1019.0 1018.9 0.0
11/08:00am 9.2 2.6 4.2 71 2.2 WSW 28 35 15 19 1018.7 1018.6 0.0
11/07:30am 8.1 2.6 3.9 75 1.8 WSW 22 32 12 17 1018.2 1018.1 0.0
11/07:00am 7.4 2.4 3.6 77 1.6 WSW 19 24 10 13 1017.8 1017.8 0.0
11/06:30am 7.5 2.3 3.6 76 1.7 WSW 20 24 11 13 1017.4 1017.4 0.0
11/06:00am 7.9 2.7 3.6 74 1.8 WSW 20 28 11 15 1017.1 1017.0 0.0
11/05:30am 8.0 2.4 3.7 74 1.9 WSW 22 28 12 15 1016.6 1016.5 0.0
11/05:00am 8.3 2.4 3.8 73 1.9 WSW 24 32 13 17 1016.2 1016.1 0.0
11/04:30am 8.6 2.7 4.0 73 2.0 WSW 24 32 13 17 1016.0 1015.9 0.0
11/04:00am 8.6 3.7 4.2 74 1.9 WSW 19 24 10 13 1015.6 1015.5 0.0
11/03:30am 9.1 4.0 4.3 72 2.1 WSW 20 26 11 14 1015.3 1015.2 0.0
11/03:00am 9.5 4.1 4.3 70 2.3 SW 22 30 12 16 1015.2 1015.1 0.0
11/02:30am 9.9 3.7 4.3 68 2.5 WSW 26 33 14 18 1015.2 1015.1 0.0
11/02:00am 10.3 3.7 4.0 65 2.8 SW 28 39 15 21 1015.3 1015.2 0.0
11/01:30am 10.8 3.8 4.0 63 3.0 WSW 30 43 16 23 1014.9 1014.8 0.0
11/01:00am 11.2 4.3 4.7 64 3.0 WSW 30 41 16 22 1014.8 1014.7 0.0
11/12:30am 11.3 4.4 4.7 64 3.0 WSW 30 37 16 20 1014.7 1014.6 0.0
11/12:00am 11.4 5.6 4.6 63 3.1 WSW 24 32 13 17 1014.7 1014.6 0.0
 
Date/Time
EST
Temp
°C
App
Temp
°C
Dew
Point
°C
Rel
Hum
%
Delta-T
°C
Wind Press
QNH
hPa
Press
MSL
hPa
Rain since
9am
mm
Dir  Spd
km/h
Gust
km/h
Spd
kts
Gust
kts
10/11:30pm 12.1 6.2 4.1 58 3.6 WSW 24 33 13 18 1014.7 1014.6 0.0
10/11:00pm 12.4 5.4 3.9 56 3.8 SW 30 39 16 21 1014.7 1014.6 0.0
10/10:30pm 13.0 5.9 3.4 52 4.3 SW 30 39 16 21 1014.3 1014.2 0.0
10/10:00pm 13.4 6.8 4.0 53 4.3 SW 28 37 15 20 1014.2 1014.1 0.0
10/09:30pm 14.9 6.8 3.4 46 5.2 WSW 35 44 19 24 1013.7 1013.6 0.0
10/09:00pm 14.9 8.6 1.8 41 5.8 WSW 24 32 13 17 1013.4 1013.3 0.0
10/08:30pm 15.0 8.3 1.2 39 6.0 SW 26 32 14 17 1013.2 1013.1 0.0
10/08:00pm 15.5 8.4 1.3 38 6.2 SW 28 37 15 20 1012.7 1012.6 0.0
10/07:30pm 16.1 8.5 0.3 34 6.8 WSW 30 41 16 22 1012.3 1012.2 0.0
10/07:00pm 16.7 8.9 -0.5 31 7.3 SW 30 37 16 20 1011.8 1011.7 0.0
10/06:30pm 17.3 8.6 -0.4 30 7.6 WSW 35 46 19 25 1011.3 1011.2 0.0
10/06:03pm 18.2 10.3 1.3 32 7.6 SW 32 50 17 27 1010.9 1010.8 0.0
10/06:00pm 18.2 11.5 1.7 33 7.5 SW 26 39 14 21 1010.8 1010.7 0.0
10/05:30pm 19.2 11.1 0.8 29 8.2 SW 33 43 18 23 1010.5 1010.4 0.0
10/05:00pm 19.6 12.0 2.9 33 7.8 SW 32 44 17 24 1010.4 1010.3 0.0
10/04:31pm 20.0 12.4 3.7 34 7.8 SW 33 52 18 28 1010.3 1010.2 0.0
10/04:30pm 20.3 12.8 3.5 33 8.0 SW 32 46 17 25 1010.3 1010.2 0.0
10/04:00pm 20.1 11.3 3.8 34 7.8 WSW 39 50 21 27 1010.0 1009.9 0.0
10/03:41pm 20.5 12.6 4.5 35 7.8 SW 35 54 19 29 1010.0 1009.9 0.0
10/03:30pm 21.2 12.9 4.3 33 8.2 SW 37 50 20 27 1010.0 1009.9 0.0
10/03:05pm 20.5 12.5 5.7 38 7.4 WSW 37 56 20 30 1010.1 1010.0 0.0
10/03:00pm 21.1 13.1 5.9 37 7.6 WSW 37 50 20 27 1010.0 1009.9 0.0
10/02:30pm 20.4 12.1 6.0 39 7.2 SW 39 54 21 29 1009.9 1009.8 0.0
10/02:18pm 20.3 12.2 7.0 42 6.8 SW 39 54 21 29 1009.7 1009.6 0.0
10/02:02pm 21.3 13.2 5.2 35 8.0 WSW 37 46 20 25 1009.8 1009.7 0.0
10/02:00pm 21.5 13.3 5.0 34 8.2 WSW 37 46 20 25 1009.7 1009.6 0.0
10/01:50pm 21.1 13.0 5.1 35 7.9 WSW 37 46 20 25 1009.7 1009.6 0.0
10/01:30pm 20.5 13.7 5.3 37 7.5 WSW 30 41 16 22 1010.1 1010.0 0.0
10/01:00pm 20.5 13.1 4.9 36 7.7 WSW 33 46 18 25 1010.4 1010.3 0.0
10/12:51pm 20.0 12.9 5.6 39 7.1 WSW 32 50 17 27 1010.5 1010.4 0.0
10/12:44pm 20.9 13.8 5.7 37 7.6 WSW 32 50 17 27 1010.5 1010.4 0.0
10/12:33pm 20.5 13.3 6.1 39 7.2 WSW 33 48 18 26 1010.7 1010.6 0.0
10/12:30pm 20.2 13.1 6.5 41 6.9 WSW 33 48 18 26 1010.8 1010.7 0.0
10/12:00pm 18.9 14.3 8.0 49 5.6 WSW 22 32 12 17 1011.2 1011.1 0.0
10/11:30am 17.6 13.0 9.5 59 4.3 W 24 33 13 18 1011.5 1011.4 0.0
10/11:00am 17.5 11.1 8.4 55 4.7 WSW 32 43 17 23 1011.8 1011.7 0.0
10/10:30am 16.8 11.4 8.0 56 4.5 WSW 26 35 14 19 1012.0 1011.9 0.0
10/10:00am 16.2 10.5 8.2 59 4.1 W 28 35 15 19 1012.2 1012.1 0.0
10/09:30am 15.3 9.9 8.1 62 3.6 W 26 32 14 17 1012.2 1012.1 0.0
10/09:00am 14.9 9.9 8.2 64 3.4 W 24 32 13 17 1012.0 1011.9 0.0
10/08:30am 13.0 8.9 7.7 70 2.6 W 19 26 10 14 1011.8 1011.7 0.0
10/08:00am 12.4 8.6 7.5 72 2.4 W 17 26 9 14 1011.6 1011.5 0.0
10/07:30am 11.5 7.9 6.8 73 2.2 W 15 19 8 10 1011.2 1011.1 0.0
10/07:00am 10.7 6.6 6.3 74 2.1 W 17 20 9 11 1011.1 1011.0 0.0
10/06:30am 11.3 7.2 6.2 71 2.4 W 17 22 9 12 1010.9 1010.8 0.0
10/06:00am 11.4 7.7 6.5 72 2.3 WSW 15 19 8 10 1011.0 1010.9 0.0
10/05:30am 10.5 6.8 6.3 75 2.0 WSW 15 20 8 11 1010.9 1010.8 0.0
10/05:00am 9.3 6.2 5.5 77 1.7 WSW 11 13 6 7 1010.4 1010.3 0.0
10/04:30am 10.0 6.6 5.8 75 1.9 SW 13 15 7 8 1010.1 1010.0 0.0
10/04:00am 10.8 7.0 6.0 72 2.2 WSW 15 17 8 9 1010.0 1009.9 0.0
10/03:30am 10.9 7.1 5.9 71 2.3 WSW 15 19 8 10 1010.1 1010.0 0.0
10/03:00am 11.2 7.4 5.7 69 2.6 SW 15 19 8 10 1010.0 1009.9 0.0
10/02:30am 11.3 7.1 5.6 68 2.6 SW 17 19 9 10 1010.2 1010.1 0.0
10/02:00am 11.4 7.0 4.8 64 3.0 WSW 17 20 9 11 1010.2 1010.1 0.0
10/01:30am 11.9 7.5 4.6 61 3.3 SW 17 20 9 11 1010.2 1010.1 0.0
10/01:00am 12.4 7.3 4.1 57 3.8 WSW 20 24 11 13 1010.4 1010.3 0.0
10/12:30am 12.3 7.8 4.0 57 3.7 WSW 17 20 9 11 1010.4 1010.3 0.0
10/12:00am 12.4 8.6 3.9 56 3.8 SW 13 17 7 9 1010.4 1010.3 0.0
 
Date/Time
EST
Temp
°C
App
Temp
°C
Dew
Point
°C
Rel
Hum
%
Delta-T
°C
Wind Press
QNH
hPa
Press
MSL
hPa
Rain since
9am
mm
Dir  Spd
km/h
Gust
km/h
Spd
kts
Gust
kts
09/11:30pm 13.1 10.1 4.0 54 4.1 SW 9 13 5 7 1010.4 1010.3 0.0
09/11:00pm 13.4 9.9 3.5 51 4.5 SW 11 15 6 8 1010.3 1010.2 0.0
09/10:30pm 13.3 9.8 3.7 52 4.3 SW 11 13 6 7 1010.3 1010.2 0.0
09/10:00pm 13.9 10.4 3.4 49 4.7 SSW 11 15 6 8 1010.4 1010.3 0.0
09/09:30pm 14.4 10.8 3.2 47 5.1 SSW 11 17 6 9 1010.6 1010.5 0.0
09/09:00pm 14.7 10.7 2.9 45 5.3 SW 13 17 7 9 1010.6 1010.5 0.0
09/08:30pm 15.4 11.0 2.9 43 5.7 SW 15 19 8 10 1010.3 1010.2 0.0
09/08:00pm 16.3 12.3 3.0 41 6.1 SW 13 17 7 9 1010.2 1010.1 0.0
09/07:30pm 16.4 12.4 2.8 40 6.2 SW 13 15 7 8 1010.0 1009.9 0.0
09/07:00pm 17.0 12.9 2.2 37 6.7 SW 13 15 7 8 1009.4 1009.3 0.0
09/06:30pm 18.1 14.0 2.0 34 7.3 SW 13 19 7 10 1009.2 1009.1 0.0
09/06:00pm 19.5 14.3 2.4 32 7.9 SW 19 24 10 13 1009.3 1009.2 0.0
09/05:30pm 20.3 14.9 2.2 30 8.4 SW 20 32 11 17 1009.1 1009.0 0.0
09/05:00pm 20.9 15.0 1.7 28 8.9 SW 22 33 12 18 1008.8 1008.7 0.0
09/04:30pm 21.1 15.5 1.4 27 9.1 SW 20 30 11 16 1008.9 1008.8 0.0
09/04:00pm 21.5 15.3 2.2 28 9.1 SW 24 32 13 17 1008.7 1008.6 0.0
09/03:30pm 21.7 15.5 1.9 27 9.2 SW 24 32 13 17 1008.7 1008.6 0.0
09/03:00pm 21.6 16.4 2.3 28 9.1 SSW 19 32 10 17 1008.7 1008.6 0.0
09/02:30pm 21.1 14.9 1.9 28 8.9 SW 24 37 13 20 1009.2 1009.1 0.0
09/02:00pm 21.2 15.8 2.5 29 8.8 SSW 20 33 11 18 1009.3 1009.2 0.0
09/01:30pm 20.6 15.9 3.3 32 8.2 S 17 35 9 19 1009.8 1009.7 0.0
09/01:00pm 20.8 14.8 3.5 32 8.3 SW 24 35 13 19 1010.2 1010.1 0.0
09/12:30pm 20.0 14.8 3.3 33 7.9 SSW 20 35 11 19 1010.6 1010.5 0.0
09/12:00pm 19.4 13.8 3.6 35 7.5 SSW 22 39 12 21 1010.8 1010.7 0.0
09/11:30am 18.9 13.8 3.9 37 7.1 SSW 20 33 11 18 1011.0 1010.9 0.0
09/11:00am 18.2 11.8 5.1 42 6.3 SW 28 43 15 23 1011.2 1011.1 0.0
09/10:30am 18.0 13.3 5.9 45 5.9 SSW 20 33 11 18 1011.3 1011.2 0.0
09/10:00am 17.7 13.0 7.7 52 5.1 SSW 22 33 12 18 1011.0 1010.9 0.0
09/09:30am 18.0 12.9 7.7 51 5.2 S 24 37 13 20 1011.0 1010.9 0.0
09/09:00am 17.1 12.7 8.8 58 4.3 SSW 22 35 12 19 1010.8 1010.7 0.0
09/08:30am 16.6 11.8 8.8 60 4.0 SSW 24 39 13 21 1010.4 1010.3 0.0
09/08:00am 16.5 11.4 9.2 62 3.8 SSW 26 39 14 21 1009.8 1009.7 0.0
09/07:30am 16.1 12.4 10.0 67 3.2 SSW 20 32 11 17 1009.0 1008.9 0.0
09/07:00am 16.4 13.3 12.2 76 2.3 SSW 20 33 11 18 1008.4 1008.3 0.0
09/06:58am 16.3 13.3 12.5 78 2.1 SSW 20 28 11 15 1008.4 1008.3 0.0
09/06:37am 16.2 14.0 13.3 83 1.6 SW 17 26 9 14 1008.2 1008.1 0.0
09/06:30am 16.0 13.4 13.1 83 1.6 SW 19 24 10 13 1008.1 1008.0 0.0
09/06:00am 16.0 13.0 12.6 80 1.9 SW 20 30 11 16 1007.8 1007.7 0.0
09/05:30am 16.7 13.7 11.8 73 2.7 SW 19 26 10 14 1007.4 1007.3 0.0
09/05:00am 17.6 14.2 11.4 67 3.4 SW 20 26 11 14 1007.2 1007.1 0.0
09/04:30am 18.3 15.4 11.1 63 3.9 SSW 17 24 9 13 1006.8 1006.7 0.0
09/04:00am 19.1 16.2 8.1 49 5.7 SW 13 19 7 10 1006.5 1006.4 0.0
09/03:30am 19.4 15.3 4.4 37 7.2 SSW 15 24 8 13 1006.4 1006.3 0.0
09/03:00am 19.7 14.9 2.6 32 8.0 SW 17 26 9 14 1006.7 1006.6 0.0
09/02:30am 19.7 14.7 1.2 29 8.4 SW 17 22 9 12 1006.6 1006.5 0.0
09/02:00am 20.0 14.5 0.5 27 8.8 SW 19 22 10 12 1006.7 1006.6 0.0
09/01:30am 19.6 15.1 -0.4 26 8.8 SW 13 15 7 8 1006.4 1006.3 0.0
09/01:00am 19.0 13.7 -0.4 27 8.5 SW 17 22 9 12 1006.6 1006.5 0.0
09/12:30am 17.8 14.2 0.9 32 7.5 WSW 9 9 5 5 1005.7 1005.6 0.0
09/12:00am 19.1 15.2 1.1 30 8.1 WSW 11 11 6 6 1005.9 1005.8 0.0
 
Date/Time
EST
Temp
°C
App
Temp
°C
Dew
Point
°C
Rel
Hum
%
Delta-T
°C
Wind Press
QNH
hPa
Press
MSL
hPa
Rain since
9am
mm
Dir  Spd
km/h
Gust
km/h
Spd
kts
Gust
kts
08/11:30pm 18.9 15.8 1.4 31 7.9 WSW 7 7 4 4 1006.5 1006.4 0.0
08/11:00pm 20.9 15.7 0.2 25 9.3 WSW 17 20 9 11 1007.0 1006.9 0.0
08/10:30pm 18.8 14.9 0.9 30 8.0 NNW 11 15 6 8 1006.9 1006.8 0.0
08/10:00pm 17.8 14.1 2.5 36 7.0 NNW 11 13 6 7 1007.1 1007.0 0.0
08/09:30pm 16.8 12.9 0.9 34 7.0 NNW 11 13 6 7 1006.9 1006.8 0.0
08/09:00pm 17.0 12.9 -0.2 31 7.4 NNW 11 13 6 7 1006.9 1006.8 0.0
08/08:30pm 19.3 15.7 0.8 29 8.3 NNW 9 9 5 5 1006.9 1006.8 0.0
08/08:00pm 19.3 15.8 1.3 30 8.2 NNW 9 9 5 5 1007.1 1007.0 0.0
08/07:30pm 20.8 17.1 0.1 25 9.3 NNW 9 9 5 5 1006.8 1006.7 0.0
08/07:00pm 22.4 18.8 0.3 23 10.1 NNW 9 11 5 6 1006.8 1006.7 0.0
08/06:30pm 22.9 19.4 -1.2 20 10.7 WNW 7 7 4 4 1006.7 1006.6 0.0
08/06:00pm 24.6 20.5 -0.5 19 11.5 WNW 11 13 6 7 1006.7 1006.6 0.0
08/05:30pm 27.6 22.1 -2.3 14 13.5 WNW 17 22 9 12 1006.9 1006.8 0.0
08/05:00pm 29.0 23.5 -2.2 13 14.3 NW 17 22 9 12 1006.8 1006.7 0.0
08/04:30pm 29.0 23.2 -4.4 11 14.7 NW 17 24 9 13 1006.7 1006.6 0.0

Other formats

Comma delimited format used in spreadsheet applications
http://www.bom.gov.au/fwo/IDV60801/IDV60801.94843.axf

JavaScript Object Notation format (JSON) in row-major order
http://www.bom.gov.au/fwo/IDV60801/IDV60801.94843.json

Data quality

Most of these data are generated automatically and are frequently updated. Quality checks on data are not normally performed. It is possible for incorrect values to appear. Refer to information at About Latest Weather Observations and please check the disclaimer before using these data.